createdAt,value
2022-10-07T00:01:12.384Z,9.36
2022-10-07T00:04:02.853Z,9.65
2022-10-07T00:06:45.142Z,9.89
2022-10-07T00:12:13.282Z,10.23
2022-10-07T00:17:48.941Z,10.58
2022-10-07T00:20:32.759Z,10.76
2022-10-07T00:23:14.604Z,11.01
2022-10-07T00:25:56.717Z,11.08
2022-10-07T00:28:34.060Z,10.49
2022-10-07T00:34:15.049Z,9.98
2022-10-07T00:37:10.337Z,10.25
2022-10-07T00:40:02.709Z,10.25
2022-10-07T00:42:40.818Z,9.86
2022-10-07T00:45:44.614Z,9.91
2022-10-07T00:48:53.154Z,9.64
2022-10-07T00:51:44.198Z,9.41
2022-10-07T00:54:55.042Z,9.45
2022-10-07T00:57:39.386Z,9.50
2022-10-07T01:00:18.220Z,9.62
2022-10-07T01:03:11.406Z,9.52
2022-10-07T01:05:52.032Z,9.46
2022-10-07T01:08:40.273Z,9.24
2022-10-07T01:11:34.488Z,9.50
2022-10-07T01:17:43.373Z,9.85
2022-10-07T01:20:47.388Z,9.54
2022-10-07T01:24:11.115Z,9.26
2022-10-07T01:27:09.980Z,9.07
2022-10-07T01:29:57.957Z,8.84
2022-10-07T01:32:43.445Z,8.98
2022-10-07T01:35:33.115Z,8.99
2022-10-07T01:41:40.027Z,9.29
2022-10-07T01:44:30.779Z,9.75
2022-10-07T01:47:22.155Z,9.92
2022-10-07T01:50:10.659Z,9.83
2022-10-07T01:53:21.735Z,10.11
2022-10-07T01:56:15.653Z,10.65
2022-10-07T01:59:18.945Z,11.12
2022-10-07T02:02:52.950Z,11.71
2022-10-07T02:05:46.371Z,11.46
2022-10-07T02:08:50.773Z,10.90
2022-10-07T02:11:37.149Z,10.94
2022-10-07T02:17:23.461Z,10.83
2022-10-07T02:20:09.176Z,10.97
2022-10-07T02:22:49.751Z,11.69
2022-10-07T02:25:50.955Z,11.73
2022-10-07T02:28:25.946Z,11.70
2022-10-07T02:31:08.992Z,11.70
2022-10-07T02:33:47.337Z,11.31
2022-10-07T02:36:40.164Z,10.67
2022-10-07T02:39:25.582Z,10.80
2022-10-07T02:45:20.357Z,10.65
2022-10-07T02:48:18.386Z,10.65
2022-10-07T02:51:20.985Z,10.65
2022-10-07T02:54:10.348Z,10.43
2022-10-07T02:56:51.625Z,10.21
2022-10-07T02:59:31.217Z,10.08
2022-10-07T03:02:12.419Z,9.98
2022-10-07T03:04:52.571Z,10.03
2022-10-07T03:07:27.009Z,10.58
2022-10-07T03:10:12.515Z,11.14
2022-10-07T03:13:06.640Z,11.13
2022-10-07T03:15:46.278Z,10.73
2022-10-07T03:18:34.149Z,10.63
2022-10-07T03:21:26.638Z,10.51
2022-10-07T03:24:06.684Z,10.27
2022-10-07T03:27:02.718Z,10.18
2022-10-07T03:30:02.738Z,10.12
2022-10-07T03:32:49.604Z,10.13
2022-10-07T03:35:35.403Z,10.19
2022-10-07T03:38:13.824Z,10.27
2022-10-07T03:40:55.495Z,10.17
2022-10-07T03:43:48.956Z,10.13
2022-10-07T03:46:40.803Z,10.14
2022-10-07T03:49:31.535Z,10.18
2022-10-07T03:52:17.537Z,10.08
2022-10-07T03:55:10.713Z,9.83
2022-10-07T03:58:07.981Z,10.11
2022-10-07T04:01:04.843Z,9.90
2022-10-07T04:04:25.697Z,10.08
2022-10-07T04:07:27.504Z,10.03
2022-10-07T04:13:28.915Z,9.83
2022-10-07T04:16:08.332Z,9.92
2022-10-07T04:19:29.006Z,9.76
2022-10-07T04:26:08.758Z,9.40
2022-10-07T04:28:54.672Z,9.15
2022-10-07T04:31:44.740Z,8.96
2022-10-07T04:34:47.291Z,8.85
2022-10-07T04:37:26.577Z,8.97
2022-10-07T04:40:21.477Z,9.09
2022-10-07T04:43:23.453Z,9.25
2022-10-07T04:46:00.491Z,9.32
2022-10-07T04:48:44.328Z,9.37
2022-10-07T04:51:18.755Z,9.42
2022-10-07T04:54:15.785Z,9.36
2022-10-07T04:57:10.812Z,9.49
2022-10-07T05:00:06.806Z,9.53
2022-10-07T05:02:49.367Z,9.48
2022-10-07T05:05:46.427Z,9.48
2022-10-07T05:08:31.804Z,9.62
2022-10-07T05:11:27.037Z,9.67
2022-10-07T05:14:02.768Z,9.73
2022-10-07T05:17:06.006Z,9.71
2022-10-07T05:19:52.733Z,9.70
2022-10-07T05:22:45.901Z,9.62
2022-10-07T05:25:27.566Z,9.68
2022-10-07T05:28:00.215Z,9.77
2022-10-07T05:30:49.394Z,9.85
2022-10-07T05:33:48.587Z,9.82
2022-10-07T05:36:29.725Z,9.69
2022-10-07T05:39:25.409Z,9.68
2022-10-07T05:45:17.149Z,9.45
2022-10-07T05:48:10.791Z,9.42
2022-10-07T05:51:08.412Z,9.52
2022-10-07T05:54:03.830Z,9.74
2022-10-07T05:56:52.687Z,9.82
2022-10-07T05:59:39.706Z,10.03
2022-10-07T06:02:38.834Z,10.02
2022-10-07T06:05:28.797Z,9.86
2022-10-07T06:08:33.118Z,10.44
2022-10-07T06:11:34.884Z,10.36
2022-10-07T06:14:08.191Z,10.12
2022-10-07T06:16:55.418Z,9.65
2022-10-07T06:20:07.284Z,10.10
2022-10-07T06:22:49.619Z,10.00
2022-10-07T06:25:38.247Z,10.02
2022-10-07T06:28:24.119Z,10.01
2022-10-07T06:31:10.335Z,10.01
2022-10-07T06:34:07.366Z,10.00
2022-10-07T06:36:54.736Z,9.98
2022-10-07T06:39:38.002Z,9.93
2022-10-07T06:46:01.817Z,9.79
2022-10-07T06:48:49.012Z,9.55
2022-10-07T06:51:29.142Z,9.63
2022-10-07T06:54:13.515Z,9.52
2022-10-07T06:56:48.426Z,9.43
2022-10-07T06:59:28.206Z,9.30
2022-10-07T07:02:12.444Z,9.16
2022-10-07T07:04:57.962Z,9.07
2022-10-07T07:07:39.276Z,8.81
2022-10-07T07:10:30.614Z,8.99
2022-10-07T07:13:14.640Z,8.82
2022-10-07T07:16:21.440Z,8.58
2022-10-07T07:19:06.503Z,8.58
2022-10-07T07:21:55.650Z,8.50
2022-10-07T07:24:36.616Z,8.47
2022-10-07T07:27:17.363Z,8.35
2022-10-07T07:30:05.260Z,8.30
2022-10-07T07:32:54.238Z,8.13
2022-10-07T07:35:28.869Z,8.03
2022-10-07T07:38:02.426Z,7.94
2022-10-07T07:43:47.668Z,7.69
2022-10-07T07:46:45.791Z,7.59
2022-10-07T07:49:26.710Z,7.55
2022-10-07T07:52:16.515Z,7.45
2022-10-07T07:55:02.903Z,7.31
2022-10-07T07:57:52.911Z,7.10
2022-10-07T08:00:43.755Z,6.95
2022-10-07T08:03:22.341Z,6.68
2022-10-07T08:06:15.761Z,6.40
2022-10-07T08:09:00.935Z,6.07
2022-10-07T08:11:41.107Z,5.85
2022-10-07T08:14:40.668Z,5.28
2022-10-07T08:17:33.870Z,4.79
2022-10-07T08:23:06.639Z,4.35
2022-10-07T08:26:03.440Z,4.12
2022-10-07T08:28:43.144Z,3.81
2022-10-07T08:31:36.606Z,3.70
2022-10-07T08:34:25.088Z,3.48
2022-10-07T08:37:15.882Z,3.42
2022-10-07T08:40:06.683Z,3.30
2022-10-07T08:42:56.466Z,3.08
2022-10-07T08:45:42.445Z,2.97
2022-10-07T08:48:32.072Z,2.93
2022-10-07T08:51:36.749Z,2.90
2022-10-07T08:54:24.082Z,2.84
2022-10-07T08:57:18.566Z,2.74
2022-10-07T08:59:57.929Z,2.66
2022-10-07T09:02:52.751Z,2.56
2022-10-07T09:05:46.967Z,2.50
2022-10-07T09:08:45.858Z,2.46
2022-10-07T09:11:31.626Z,2.54
2022-10-07T09:14:23.523Z,2.56
2022-10-07T09:17:07.367Z,2.54
2022-10-07T09:20:06.188Z,2.03
2022-10-07T09:22:48.188Z,2.38
2022-10-07T09:25:28.863Z,2.28
2022-10-07T09:28:46.297Z,2.03
2022-10-07T09:31:39.117Z,2.16
2022-10-07T09:34:32.540Z,2.16
2022-10-07T09:37:35.068Z,2.20
2022-10-07T09:41:34.578Z,2.14
2022-10-07T09:44:17.585Z,2.16
2022-10-07T10:02:01.753Z,1.90
2022-10-07T10:24:01.833Z,1.59
2022-10-07T10:27:24.558Z,1.50
2022-10-07T10:30:13.075Z,1.41
2022-10-07T10:36:28.797Z,1.31
2022-10-07T10:39:13.854Z,1.28
2022-10-07T10:42:00.333Z,1.26
2022-10-07T10:45:20.158Z,1.20
2022-10-07T10:48:29.613Z,0.65
2022-10-07T10:51:27.378Z,1.22
2022-10-07T10:54:33.789Z,1.13
2022-10-07T10:57:34.436Z,1.14
2022-10-07T11:00:30.462Z,1.01
2022-10-07T11:03:39.521Z,1.02
2022-10-07T11:06:28.088Z,1.22
2022-10-07T11:09:08.683Z,1.32
2022-10-07T11:11:55.585Z,1.43
2022-10-07T11:14:37.356Z,1.43
2022-10-07T11:17:22.622Z,1.48
2022-10-07T11:20:16.403Z,1.57
2022-10-07T11:23:10.400Z,1.67
2022-10-07T11:29:16.423Z,1.83
2022-10-07T11:32:16.806Z,1.88
2022-10-07T11:35:01.279Z,1.93
2022-10-07T11:37:44.563Z,1.99
2022-10-07T11:40:47.418Z,2.03
2022-10-07T11:46:46.330Z,2.03
2022-10-07T11:49:40.452Z,1.95
2022-10-07T11:52:40.110Z,2.14
2022-10-07T11:55:33.865Z,2.21
2022-10-07T11:58:57.899Z,2.26
2022-10-07T12:02:42.280Z,2.35
2022-10-07T12:24:39.221Z,2.45
2022-10-07T12:27:18.060Z,2.41
2022-10-07T12:30:17.538Z,2.46
2022-10-07T12:36:33.212Z,2.56
2022-10-07T12:39:46.330Z,2.63
2022-10-07T12:42:47.453Z,2.64
2022-10-07T12:45:44.138Z,2.66
2022-10-07T12:48:45.570Z,2.71
2022-10-07T12:51:30.060Z,2.73
2022-10-07T12:54:08.494Z,2.68
2022-10-07T12:56:54.385Z,2.62
2022-10-07T12:59:52.245Z,2.57
2022-10-07T13:03:13.994Z,2.53
2022-10-07T13:10:47.259Z,2.40
2022-10-07T13:13:43.243Z,2.26
2022-10-07T13:16:41.401Z,2.21
2022-10-07T13:19:42.854Z,2.24
2022-10-07T13:26:49.036Z,2.01
2022-10-07T13:33:50.208Z,1.87
2022-10-07T13:37:21.265Z,1.76
2022-10-07T13:43:45.485Z,1.42
2022-10-07T13:46:30.380Z,1.38
2022-10-07T13:49:29.520Z,1.36
2022-10-07T13:52:14.458Z,1.33
2022-10-07T13:55:09.189Z,1.35
2022-10-07T13:57:47.098Z,1.25
2022-10-07T14:00:32.961Z,1.14
2022-10-07T14:03:19.658Z,1.00
2022-10-07T14:06:16.561Z,0.88
2022-10-07T14:09:02.129Z,0.83
2022-10-07T14:11:48.298Z,0.80
2022-10-07T14:14:47.716Z,0.62
2022-10-07T14:17:46.878Z,0.65
2022-10-07T14:20:35.299Z,0.71
2022-10-07T14:23:43.143Z,0.85
2022-10-07T14:26:34.615Z,0.82
2022-10-07T14:29:44.164Z,0.69
2022-10-07T14:32:44.020Z,0.64
2022-10-07T14:35:55.415Z,0.66
2022-10-07T14:38:37.946Z,0.63
2022-10-07T14:41:20.509Z,0.62
2022-10-07T14:44:05.650Z,0.75
2022-10-07T14:46:44.155Z,0.73
2022-10-07T14:49:25.370Z,0.72
2022-10-07T14:52:00.431Z,0.75
2022-10-07T14:55:01.797Z,0.71
2022-10-07T14:57:40.408Z,0.77
2022-10-07T15:00:27.243Z,0.74
2022-10-07T15:03:10.103Z,0.75
2022-10-07T15:06:04.241Z,0.75
2022-10-07T15:08:38.264Z,0.71
2022-10-07T15:11:33.652Z,0.67
2022-10-07T15:14:20.945Z,0.67
2022-10-07T15:17:07.880Z,0.60
2022-10-07T15:22:41.413Z,0.44
2022-10-07T15:25:26.200Z,-0.01
2022-10-07T15:28:41.403Z,0.42
2022-10-07T15:31:22.493Z,-0.17
2022-10-07T15:34:02.420Z,0.39
2022-10-07T15:36:57.116Z,0.38
2022-10-07T15:39:39.856Z,0.34
2022-10-07T15:42:35.395Z,0.29
2022-10-07T15:45:26.001Z,0.21
2022-10-07T15:48:09.552Z,0.12
2022-10-07T15:50:57.631Z,0.10
2022-10-07T15:56:24.574Z,0.03
2022-10-07T15:59:06.057Z,-0.08
2022-10-07T16:01:45.569Z,-0.04
2022-10-07T16:04:30.442Z,-0.02
2022-10-07T16:07:10.691Z,0.07
2022-10-07T16:09:57.077Z,0.16
2022-10-07T16:12:35.853Z,0.14
2022-10-07T16:15:13.438Z,0.05
2022-10-07T16:18:22.705Z,-0.03
2022-10-07T16:21:13.776Z,-0.12
2022-10-07T16:23:54.004Z,-0.14
2022-10-07T16:26:35.757Z,-0.24
2022-10-07T16:29:38.939Z,-0.60
2022-10-07T16:32:26.158Z,-0.17
2022-10-07T16:35:07.524Z,-0.19
2022-10-07T16:39:18.273Z,-0.24
2022-10-07T16:42:31.758Z,-0.42
2022-10-07T16:52:32.836Z,-0.39
2022-10-07T16:55:13.093Z,-0.27
2022-10-07T16:57:57.302Z,-0.31
2022-10-07T17:01:15.387Z,-0.14
2022-10-07T17:03:56.950Z,-0.23
2022-10-07T17:06:38.760Z,-0.52
2022-10-07T17:09:34.960Z,-0.51
2022-10-07T17:12:22.869Z,-0.54
2022-10-07T17:15:07.952Z,-0.60
2022-10-07T17:17:58.510Z,-0.72
2022-10-07T17:20:40.541Z,-0.73
2022-10-07T17:23:27.423Z,-0.69
2022-10-07T17:26:12.872Z,-0.79
2022-10-07T17:28:51.393Z,-0.82
2022-10-07T17:31:41.069Z,-0.69
2022-10-07T17:35:05.820Z,-0.68
2022-10-07T17:38:00.340Z,-0.67
2022-10-07T17:40:46.926Z,-0.69
2022-10-07T17:43:26.815Z,-0.77
2022-10-07T17:46:02.826Z,-0.73
2022-10-07T17:48:52.090Z,-0.76
2022-10-07T17:51:47.103Z,-1.20
2022-10-07T17:57:41.991Z,-0.92
2022-10-07T18:00:44.220Z,-0.82
2022-10-07T18:03:21.862Z,-0.77
2022-10-07T18:06:03.566Z,-0.79
2022-10-07T18:08:47.211Z,-0.84
2022-10-07T18:11:54.073Z,-0.88
2022-10-07T18:14:54.601Z,-0.90
2022-10-07T18:18:08.379Z,-1.15
2022-10-07T18:21:02.593Z,-0.89
2022-10-07T18:23:37.824Z,-1.73
2022-10-07T18:26:22.128Z,-0.97
2022-10-07T18:29:11.888Z,-1.05
2022-10-07T18:31:52.342Z,-1.11
2022-10-07T18:34:40.291Z,-1.15
2022-10-07T18:37:23.745Z,-1.42
2022-10-07T18:40:06.769Z,-1.32
2022-10-07T18:42:47.822Z,-1.35
2022-10-07T18:45:33.194Z,-1.27
2022-10-07T18:48:17.999Z,-1.32
2022-10-07T18:51:05.225Z,-1.28
2022-10-07T18:54:04.788Z,-1.28
2022-10-07T18:56:55.681Z,-1.25
2022-10-07T18:59:38.465Z,-1.25
2022-10-07T19:02:26.970Z,-1.53
2022-10-07T19:05:08.162Z,-1.38
2022-10-07T19:08:08.117Z,-1.33
2022-10-07T19:10:50.269Z,-1.37
2022-10-07T19:13:56.396Z,-1.13
2022-10-07T19:16:52.795Z,-1.09
2022-10-07T19:19:40.389Z,-1.09
2022-10-07T19:22:18.529Z,-1.21
2022-10-07T19:25:28.257Z,-1.18
2022-10-07T19:28:13.822Z,-1.21
2022-10-07T19:31:01.076Z,-1.12
2022-10-07T19:33:41.256Z,-1.15
2022-10-07T19:39:23.281Z,-1.13
2022-10-07T19:42:05.571Z,-1.13
2022-10-07T19:44:51.927Z,-1.14
2022-10-07T19:47:41.178Z,-1.13
2022-10-07T19:50:20.520Z,-1.10
2022-10-07T19:52:54.328Z,-1.35
2022-10-07T19:55:42.133Z,-0.99
2022-10-07T19:58:20.948Z,-0.91
2022-10-07T20:04:26.297Z,-1.23
2022-10-07T20:06:59.952Z,-0.77
2022-10-07T20:09:50.082Z,-0.72
2022-10-07T20:12:32.447Z,-0.68
2022-10-07T20:15:41.225Z,-0.63
2022-10-07T20:18:38.507Z,-0.59
2022-10-07T20:21:22.092Z,-0.54
2022-10-07T20:24:07.408Z,-0.49
2022-10-07T20:27:10.261Z,-0.50
2022-10-07T20:29:57.450Z,-0.45
2022-10-07T20:32:44.190Z,-0.44
2022-10-07T20:35:18.814Z,-0.84
2022-10-07T20:38:02.660Z,-0.45
2022-10-07T20:41:03.271Z,-0.45
2022-10-07T20:43:41.903Z,-0.38
2022-10-07T20:46:19.537Z,-0.27
2022-10-07T20:49:18.376Z,-0.16
2022-10-07T20:52:04.245Z,-0.09
2022-10-07T20:55:09.124Z,0.11
2022-10-07T20:58:08.994Z,0.28
2022-10-07T21:00:56.478Z,0.30
2022-10-07T21:03:48.402Z,0.37
2022-10-07T21:06:42.112Z,0.25
2022-10-07T21:09:22.105Z,0.57
2022-10-07T21:12:16.408Z,0.73
2022-10-07T21:15:01.456Z,0.37
2022-10-07T21:17:46.522Z,0.97
2022-10-07T21:20:36.656Z,1.20
2022-10-07T21:23:19.810Z,1.32
2022-10-07T21:26:02.161Z,1.39
2022-10-07T21:28:49.030Z,1.50
2022-10-07T21:31:32.876Z,1.42
2022-10-07T21:34:26.300Z,1.69
2022-10-07T21:37:13.718Z,1.88
2022-10-07T21:40:09.734Z,2.08
2022-10-07T21:43:04.722Z,2.32
2022-10-07T21:49:07.477Z,2.68
2022-10-07T21:51:56.468Z,2.91
2022-10-07T21:54:35.900Z,3.07
2022-10-07T21:57:27.128Z,3.42
2022-10-07T22:00:07.864Z,3.65
2022-10-07T22:02:50.348Z,3.75
2022-10-07T22:11:35.492Z,4.12
2022-10-07T22:18:05.794Z,4.68
2022-10-07T22:20:53.523Z,4.78
2022-10-07T22:23:36.509Z,4.84
2022-10-07T22:26:27.596Z,4.84
2022-10-07T22:32:17.109Z,5.04
2022-10-07T22:35:10.169Z,5.16
2022-10-07T22:40:46.619Z,5.34
2022-10-07T22:43:35.903Z,5.38
2022-10-07T22:46:24.173Z,5.42
2022-10-07T22:52:11.812Z,5.55
2022-10-07T22:57:50.313Z,5.81
2022-10-07T23:00:41.612Z,5.96
2022-10-07T23:03:31.562Z,6.15
2022-10-07T23:06:18.562Z,6.18
2022-10-07T23:09:05.540Z,6.32
2022-10-07T23:12:02.195Z,6.38
2022-10-07T23:14:53.715Z,6.43
2022-10-07T23:17:39.311Z,6.54
2022-10-07T23:20:23.618Z,6.57
2022-10-07T23:23:01.409Z,6.61
2022-10-07T23:25:48.336Z,6.59
2022-10-07T23:28:41.554Z,6.56
2022-10-07T23:31:25.799Z,6.64
2022-10-07T23:34:16.719Z,6.69
2022-10-07T23:37:22.558Z,6.52
2022-10-07T23:40:06.929Z,6.94
2022-10-07T23:42:52.042Z,7.00
2022-10-07T23:45:41.267Z,7.19
2022-10-07T23:59:51.475Z,7.86
